sensor_id;sensor_type;location;lat;lon;timestamp;pressure;altitude;pressure_sealevel;temperature;humidity
34921;BME280;21128;50.016;20.002;2022-12-18T00:00:41;100312.81;;;-5.12;100.00
34921;BME280;21128;50.016;20.002;2022-12-18T00:03:44;100314.53;;;-5.13;100.00
34921;BME280;21128;50.016;20.002;2022-12-18T00:06:30;100321.33;;;-5.13;100.00
34921;BME280;21128;50.016;20.002;2022-12-18T00:09:18;100318.78;;;-5.15;100.00
34921;BME280;21128;50.016;20.002;2022-12-18T00:12:04;100322.23;;;-5.17;100.00
34921;BME280;21128;50.016;20.002;2022-12-18T00:14:50;100327.34;;;-5.16;100.00
34921;BME280;21128;50.016;20.002;2022-12-18T00:17:36;100331.61;;;-5.16;100.00
34921;BME280;21128;50.016;20.002;2022-12-18T00:20:21;100329.91;;;-5.16;100.00
34921;BME280;21128;50.016;20.002;2022-12-18T00:23:13;100340.16;;;-5.16;100.00
34921;BME280;21128;50.016;20.002;2022-12-18T00:26:10;100343.56;;;-5.15;100.00
34921;BME280;21128;50.016;20.002;2022-12-18T00:29:04;100344.41;;;-5.13;100.00
34921;BME280;21128;50.016;20.002;2022-12-18T00:31:50;100349.55;;;-5.12;100.00
34921;BME280;21128;50.016;20.002;2022-12-18T00:34:36;100340.14;;;-5.14;100.00
34921;BME280;21128;50.016;20.002;2022-12-18T00:37:27;100353.81;;;-5.15;100.00
34921;BME280;21128;50.016;20.002;2022-12-18T00:40:20;100363.23;;;-5.13;100.00
34921;BME280;21128;50.016;20.002;2022-12-18T00:43:09;100357.22;;;-5.13;100.00
34921;BME280;21128;50.016;20.002;2022-12-18T00:45:54;100360.65;;;-5.11;100.00
34921;BME280;21128;50.016;20.002;2022-12-18T00:48:40;100361.50;;;-5.11;100.00
34921;BME280;21128;50.016;20.002;2022-12-18T00:51:26;100374.30;;;-5.09;100.00
34921;BME280;21128;50.016;20.002;2022-12-18T00:54:13;100384.55;;;-5.09;100.00
34921;BME280;21128;50.016;20.002;2022-12-18T00:56:58;100383.69;;;-5.08;100.00
34921;BME280;21128;50.016;20.002;2022-12-18T00:59:50;100387.95;;;-5.07;100.00
34921;BME280;21128;50.016;20.002;2022-12-18T01:02:36;100393.06;;;-5.05;100.00
34921;BME280;21128;50.016;20.002;2022-12-18T01:05:22;100394.80;;;-5.07;100.00
34921;BME280;21128;50.016;20.002;2022-12-18T01:08:08;100391.38;;;-5.08;100.00
34921;BME280;21128;50.016;20.002;2022-12-18T01:11:06;100397.36;;;-5.07;100.00
34921;BME280;21128;50.016;20.002;2022-12-18T01:13:53;100402.48;;;-5.07;100.00
34921;BME280;21128;50.016;20.002;2022-12-18T01:16:40;100404.20;;;-5.08;100.00
34921;BME280;21128;50.016;20.002;2022-12-18T01:19:25;100407.61;;;-5.07;100.00
34921;BME280;21128;50.016;20.002;2022-12-18T01:22:24;100417.02;;;-5.08;100.00
34921;BME280;21128;50.016;20.002;2022-12-18T01:25:10;100414.46;;;-5.10;100.00
34921;BME280;21128;50.016;20.002;2022-12-18T01:27:55;100410.19;;;-5.09;100.00
34921;BME280;21128;50.016;20.002;2022-12-18T01:30:41;100411.03;;;-5.08;100.00
34921;BME280;21128;50.016;20.002;2022-12-18T01:33:26;100411.89;;;-5.08;100.00
34921;BME280;21128;50.016;20.002;2022-12-18T01:36:20;100422.98;;;-5.07;100.00
34921;BME280;21128;50.016;20.002;2022-12-18T01:39:14;100422.14;;;-5.08;100.00
34921;BME280;21128;50.016;20.002;2022-12-18T01:42:15;100431.54;;;-5.08;100.00
34921;BME280;21128;50.016;20.002;2022-12-18T01:47:48;100426.41;;;-5.08;100.00
34921;BME280;21128;50.016;20.002;2022-12-18T01:50:41;100434.98;;;-5.11;100.00
34921;BME280;21128;50.016;20.002;2022-12-18T01:53:36;100431.55;;;-5.10;100.00
34921;BME280;21128;50.016;20.002;2022-12-18T01:56:29;100435.81;;;-5.09;100.00
34921;BME280;21128;50.016;20.002;2022-12-18T01:59:14;100441.78;;;-5.07;100.00
34921;BME280;21128;50.016;20.002;2022-12-18T02:02:01;100434.09;;;-5.07;100.00
34921;BME280;21128;50.016;20.002;2022-12-18T02:04:47;100434.93;;;-5.05;100.00
34921;BME280;21128;50.016;20.002;2022-12-18T02:07:46;100433.23;;;-5.06;100.00
34921;BME280;21128;50.016;20.002;2022-12-18T02:28:56;100479.38;;;-5.01;100.00
34921;BME280;21128;50.016;20.002;2022-12-18T02:31:50;100482.80;;;-5.04;100.00
34921;BME280;21128;50.016;20.002;2022-12-18T02:34:39;100480.25;;;-5.04;100.00
34921;BME280;21128;50.016;20.002;2022-12-18T02:37:27;100483.64;;;-5.05;100.00
34921;BME280;21128;50.016;20.002;2022-12-18T02:40:14;100487.91;;;-5.05;100.00
34921;BME280;21128;50.016;20.002;2022-12-18T02:43:12;100490.48;;;-5.07;100.00
34921;BME280;21128;50.016;20.002;2022-12-18T02:46:26;100498.16;;;-5.05;100.00
34921;BME280;21128;50.016;20.002;2022-12-18T02:49:36;100502.44;;;-5.06;100.00
34921;BME280;21128;50.016;20.002;2022-12-18T02:56:03;100504.16;;;-5.02;100.00
34921;BME280;21128;50.016;20.002;2022-12-18T02:58:59;100506.72;;;-5.02;100.00
34921;BME280;21128;50.016;20.002;2022-12-18T03:05:16;100510.12;;;-5.04;100.00
34921;BME280;21128;50.016;20.002;2022-12-18T03:08:17;100510.98;;;-5.05;100.00
34921;BME280;21128;50.016;20.002;2022-12-18T03:11:13;100519.52;;;-5.05;100.00
34921;BME280;21128;50.016;20.002;2022-12-18T03:13:59;100522.09;;;-5.05;100.00
34921;BME280;21128;50.016;20.002;2022-12-18T03:16:47;100519.53;;;-5.06;100.00
34921;BME280;21128;50.016;20.002;2022-12-18T03:19:35;100527.23;;;-5.08;100.00
34921;BME280;21128;50.016;20.002;2022-12-18T03:22:35;100534.07;;;-5.08;100.00
34921;BME280;21128;50.016;20.002;2022-12-18T03:25:23;100526.39;;;-5.10;100.00
34921;BME280;21128;50.016;20.002;2022-12-18T03:28:16;100532.39;;;-5.13;100.00
34921;BME280;21128;50.016;20.002;2022-12-18T03:31:04;100538.36;;;-5.12;100.00
34921;BME280;21128;50.016;20.002;2022-12-18T03:33:57;100535.78;;;-5.14;100.00
34921;BME280;21128;50.016;20.002;2022-12-18T03:36:44;100549.45;;;-5.15;100.00
34921;BME280;21128;50.016;20.002;2022-12-18T03:39:29;100557.14;;;-5.15;100.00
34921;BME280;21128;50.016;20.002;2022-12-18T03:42:37;100546.90;;;-5.16;100.00
34921;BME280;21128;50.016;20.002;2022-12-18T03:45:34;100553.73;;;-5.15;100.00
34921;BME280;21128;50.016;20.002;2022-12-18T03:48:40;100563.98;;;-5.15;100.00
34921;BME280;21128;50.016;20.002;2022-12-18T03:51:40;100569.09;;;-5.14;100.00
34921;BME280;21128;50.016;20.002;2022-12-18T03:54:29;100566.55;;;-5.11;100.00
34921;BME280;21128;50.016;20.002;2022-12-18T03:57:21;100559.71;;;-5.10;100.00
34921;BME280;21128;50.016;20.002;2022-12-18T04:00:11;100556.28;;;-5.07;100.00
34921;BME280;21128;50.016;20.002;2022-12-18T04:03:00;100563.12;;;-5.08;100.00
34921;BME280;21128;50.016;20.002;2022-12-18T04:05:48;100566.53;;;-5.07;100.00
34921;BME280;21128;50.016;20.002;2022-12-18T04:08:36;100575.94;;;-5.08;100.00
34921;BME280;21128;50.016;20.002;2022-12-18T04:11:24;100584.48;;;-5.09;100.00
34921;BME280;21128;50.016;20.002;2022-12-18T04:14:10;100573.38;;;-5.10;100.00
34921;BME280;21128;50.016;20.002;2022-12-18T04:16:56;100581.92;;;-5.09;100.00
34921;BME280;21128;50.016;20.002;2022-12-18T04:19:41;100577.64;;;-5.07;100.00
34921;BME280;21128;50.016;20.002;2022-12-18T04:22:34;100583.64;;;-5.11;100.00
34921;BME280;21128;50.016;20.002;2022-12-18T04:25:20;100587.89;;;-5.13;100.00
34921;BME280;21128;50.016;20.002;2022-12-18T04:28:06;100587.91;;;-5.16;100.00
34921;BME280;21128;50.016;20.002;2022-12-18T04:30:51;100592.19;;;-5.20;100.00
34921;BME280;21128;50.016;20.002;2022-12-18T04:33:37;100598.17;;;-5.19;100.00
34921;BME280;21128;50.016;20.002;2022-12-18T04:36:26;100598.17;;;-5.19;100.00
34921;BME280;21128;50.016;20.002;2022-12-18T04:39:18;100610.98;;;-5.18;100.00
34921;BME280;21128;50.016;20.002;2022-12-18T04:42:03;100606.70;;;-5.17;100.00
34921;BME280;21128;50.016;20.002;2022-12-18T04:44:49;100611.83;;;-5.17;100.00
34921;BME280;21128;50.016;20.002;2022-12-18T04:47:34;100613.53;;;-5.16;100.00
34921;BME280;21128;50.016;20.002;2022-12-18T04:50:27;100611.83;;;-5.17;100.00
34921;BME280;21128;50.016;20.002;2022-12-18T04:53:12;100622.09;;;-5.20;100.00
34921;BME280;21128;50.016;20.002;2022-12-18T04:56:06;100622.95;;;-5.21;100.00
34921;BME280;21128;50.016;20.002;2022-12-18T04:58:52;100616.95;;;-5.23;100.00
34921;BME280;21128;50.016;20.002;2022-12-18T05:01:38;100624.64;;;-5.25;100.00
34921;BME280;21128;50.016;20.002;2022-12-18T05:04:24;100633.20;;;-5.27;100.00
34921;BME280;21128;50.016;20.002;2022-12-18T05:07:09;100634.91;;;-5.28;100.00
34921;BME280;21128;50.016;20.002;2022-12-18T05:09:55;100634.03;;;-5.30;100.00
34921;BME280;21128;50.016;20.002;2022-12-18T05:12:41;100628.05;;;-5.30;100.00
34921;BME280;21128;50.016;20.002;2022-12-18T05:15:51;100645.16;;;-5.29;100.00
34921;BME280;21128;50.016;20.002;2022-12-18T05:18:37;100641.71;;;-5.30;100.00
34921;BME280;21128;50.016;20.002;2022-12-18T05:21:42;100645.13;;;-5.31;100.00
34921;BME280;21128;50.016;20.002;2022-12-18T05:24:28;100645.16;;;-5.29;100.00
34921;BME280;21128;50.016;20.002;2022-12-18T05:27:13;100649.43;;;-5.28;100.00
34921;BME280;21128;50.016;20.002;2022-12-18T05:29:59;100649.43;;;-5.28;100.00
34921;BME280;21128;50.016;20.002;2022-12-18T05:32:44;100654.55;;;-5.28;100.00
34921;BME280;21128;50.016;20.002;2022-12-18T05:35:30;100662.24;;;-5.28;100.00
34921;BME280;21128;50.016;20.002;2022-12-18T05:38:16;100656.23;;;-5.30;100.00
34921;BME280;21128;50.016;20.002;2022-12-18T05:41:08;100653.67;;;-5.30;100.00
34921;BME280;21128;50.016;20.002;2022-12-18T05:43:54;100662.22;;;-5.33;100.00
34921;BME280;21128;50.016;20.002;2022-12-18T05:46:47;100660.52;;;-5.32;100.00
34921;BME280;21128;50.016;20.002;2022-12-18T05:49:38;100663.94;;;-5.33;100.00
34921;BME280;21128;50.016;20.002;2022-12-18T05:52:24;100666.48;;;-5.32;100.00
34921;BME280;21128;50.016;20.002;2022-12-18T05:55:09;100675.03;;;-5.31;100.00
34921;BME280;21128;50.016;20.002;2022-12-18T05:58:03;100680.16;;;-5.31;100.00
34921;BME280;21128;50.016;20.002;2022-12-18T06:00:49;100675.03;;;-5.31;100.00
34921;BME280;21128;50.016;20.002;2022-12-18T06:03:34;100681.03;;;-5.29;100.00
34921;BME280;21128;50.016;20.002;2022-12-18T06:06:26;100690.43;;;-5.28;100.00
34921;BME280;21128;50.016;20.002;2022-12-18T06:09:11;100692.13;;;-5.27;100.00
34921;BME280;21128;50.016;20.002;2022-12-18T06:11:57;100704.95;;;-5.27;100.00
34921;BME280;21128;50.016;20.002;2022-12-18T06:14:49;100700.65;;;-5.30;100.00
34921;BME280;21128;50.016;20.002;2022-12-18T06:17:35;100716.02;;;-5.30;100.00
34921;BME280;21128;50.016;20.002;2022-12-18T06:20:27;100715.17;;;-5.30;100.00
34921;BME280;21128;50.016;20.002;2022-12-18T06:23:13;100722.86;;;-5.30;100.00
34921;BME280;21128;50.016;20.002;2022-12-18T06:26:06;100720.30;;;-5.33;100.00
34921;BME280;21128;50.016;20.002;2022-12-18T06:28:51;100710.91;;;-5.33;100.00
34921;BME280;21128;50.016;20.002;2022-12-18T06:31:37;100711.77;;;-5.34;100.00
34921;BME280;21128;50.016;20.002;2022-12-18T06:34:24;100710.91;;;-5.34;100.00
34921;BME280;21128;50.016;20.002;2022-12-18T06:37:10;100717.74;;;-5.33;100.00
34921;BME280;21128;50.016;20.002;2022-12-18T06:40:03;100721.16;;;-5.34;100.00
34921;BME280;21128;50.016;20.002;2022-12-18T06:42:48;100732.27;;;-5.34;100.00
34921;BME280;21128;50.016;20.002;2022-12-18T06:45:34;100733.11;;;-5.33;100.00
34921;BME280;21128;50.016;20.002;2022-12-18T06:48:19;100745.07;;;-5.32;100.00
34921;BME280;21128;50.016;20.002;2022-12-18T06:51:06;100739.09;;;-5.31;100.00
34921;BME280;21128;50.016;20.002;2022-12-18T06:53:51;100741.66;;;-5.33;100.00
34921;BME280;21128;50.016;20.002;2022-12-18T06:56:37;100749.34;;;-5.33;100.00
34921;BME280;21128;50.016;20.002;2022-12-18T06:59:23;100751.91;;;-5.31;100.00
34921;BME280;21128;50.016;20.002;2022-12-18T07:02:11;100760.45;;;-5.31;100.00
34921;BME280;21128;50.016;20.002;2022-12-18T07:04:58;100765.60;;;-5.29;100.00
34921;BME280;21128;50.016;20.002;2022-12-18T07:07:50;100767.28;;;-5.31;100.00
34921;BME280;21128;50.016;20.002;2022-12-18T07:10:49;100768.98;;;-5.30;100.00
34921;BME280;21128;50.016;20.002;2022-12-18T07:13:38;100769.02;;;-5.29;100.00
34921;BME280;21128;50.016;20.002;2022-12-18T07:16:24;100774.99;;;-5.27;100.00
34921;BME280;21128;50.016;20.002;2022-12-18T07:19:16;100780.11;;;-5.25;100.00
34921;BME280;21128;50.016;20.002;2022-12-18T07:22:14;100788.66;;;-5.22;100.00
34921;BME280;21128;50.016;20.002;2022-12-18T07:25:00;100786.98;;;-5.20;100.00
34921;BME280;21128;50.016;20.002;2022-12-18T07:27:45;100792.09;;;-5.18;100.00
34921;BME280;21128;50.016;20.002;2022-12-18T07:30:31;100794.66;;;-5.17;100.00
34921;BME280;21128;50.016;20.002;2022-12-18T07:33:16;100803.20;;;-5.15;100.00
34921;BME280;21128;50.016;20.002;2022-12-18T07:36:04;100808.35;;;-5.10;100.00
34921;BME280;21128;50.016;20.002;2022-12-18T07:38:50;100810.05;;;-5.06;100.00
34921;BME280;21128;50.016;20.002;2022-12-18T07:41:39;100818.62;;;-5.04;100.00
34921;BME280;21128;50.016;20.002;2022-12-18T07:44:30;100818.62;;;-5.04;100.00
34921;BME280;21128;50.016;20.002;2022-12-18T07:47:16;100821.19;;;-4.98;100.00
34921;BME280;21128;50.016;20.002;2022-12-18T07:50:16;100825.48;;;-4.94;100.00
34921;BME280;21128;50.016;20.002;2022-12-18T07:53:02;100827.19;;;-4.93;100.00
34921;BME280;21128;50.016;20.002;2022-12-18T07:55:55;100826.36;;;-4.87;100.00
34921;BME280;21128;50.016;20.002;2022-12-18T07:58:41;100834.05;;;-4.87;100.00
34921;BME280;21128;50.016;20.002;2022-12-18T08:01:26;100829.77;;;-4.87;100.00
34921;BME280;21128;50.016;20.002;2022-12-18T08:04:12;100834.03;;;-4.79;100.00
34921;BME280;21128;50.016;20.002;2022-12-18T08:07:05;100836.63;;;-4.76;100.00
34921;BME280;21128;50.016;20.002;2022-12-18T08:09:57;100830.63;;;-4.72;100.00
34921;BME280;21128;50.016;20.002;2022-12-18T08:12:43;100837.50;;;-4.59;100.00
34921;BME280;21128;50.016;20.002;2022-12-18T08:15:29;100834.94;;;-4.44;100.00
34921;BME280;21128;50.016;20.002;2022-12-18T08:18:14;100832.36;;;-4.32;100.00
34921;BME280;21128;50.016;20.002;2022-12-18T08:21:22;100841.79;;;-4.28;100.00
34921;BME280;21128;50.016;20.002;2022-12-18T08:24:14;100847.78;;;-4.29;100.00
34921;BME280;21128;50.016;20.002;2022-12-18T08:26:59;100847.78;;;-4.29;100.00
34921;BME280;21128;50.016;20.002;2022-12-18T08:29:45;100849.47;;;-4.23;100.00
34921;BME280;21128;50.016;20.002;2022-12-18T08:32:30;100852.90;;;-4.10;100.00
34921;BME280;21128;50.016;20.002;2022-12-18T08:35:18;100853.73;;;-3.99;100.00
34921;BME280;21128;50.016;20.002;2022-12-18T08:38:03;100843.44;;;-3.88;100.00
34921;BME280;21128;50.016;20.002;2022-12-18T08:40:49;100844.28;;;-3.82;100.00
34921;BME280;21128;50.016;20.002;2022-12-18T08:43:41;100850.27;;;-3.81;100.00
34921;BME280;21128;50.016;20.002;2022-12-18T08:46:46;100852.00;;;-3.77;100.00
34921;BME280;21128;50.016;20.002;2022-12-18T08:49:39;100858.83;;;-3.75;100.00
34921;BME280;21128;50.016;20.002;2022-12-18T08:52:25;100852.84;;;-3.77;100.00
34921;BME280;21128;50.016;20.002;2022-12-18T08:55:11;100859.69;;;-3.76;100.00
34921;BME280;21128;50.016;20.002;2022-12-18T08:57:56;100867.39;;;-3.80;100.00
34921;BME280;21128;50.016;20.002;2022-12-18T09:00:42;100873.39;;;-3.75;100.00
34921;BME280;21128;50.016;20.002;2022-12-18T09:03:27;100869.09;;;-3.79;100.00
34921;BME280;21128;50.016;20.002;2022-12-18T09:06:14;100871.67;;;-3.75;100.00
34921;BME280;21128;50.016;20.002;2022-12-18T09:09:02;100872.52;;;-3.66;100.00
34921;BME280;21128;50.016;20.002;2022-12-18T09:11:54;100876.75;;;-3.53;100.00
34921;BME280;21128;50.016;20.002;2022-12-18T09:14:40;100876.75;;;-3.44;100.00
34921;BME280;21128;50.016;20.002;2022-12-18T09:17:25;100872.38;;;-3.28;100.00
34921;BME280;21128;50.016;20.002;2022-12-18T09:20:11;100878.28;;;-3.05;100.00
34921;BME280;21128;50.016;20.002;2022-12-18T09:23:05;100878.64;;;-2.23;100.00
34921;BME280;21128;50.016;20.002;2022-12-18T09:25:51;100881.74;;;-1.86;100.00
34921;BME280;21128;50.016;20.002;2022-12-18T09:28:36;100887.77;;;-1.87;100.00
34921;BME280;21128;50.016;20.002;2022-12-18T09:31:23;100887.89;;;-2.00;100.00
34921;BME280;21128;50.016;20.002;2022-12-18T09:34:09;100888.83;;;-2.11;100.00
34921;BME280;21128;50.016;20.002;2022-12-18T09:36:56;100890.61;;;-2.19;100.00
34921;BME280;21128;50.016;20.002;2022-12-18T09:39:41;100889.00;;;-2.31;100.00
34921;BME280;21128;50.016;20.002;2022-12-18T09:42:34;100881.37;;;-2.46;100.00
34921;BME280;21128;50.016;20.002;2022-12-18T09:45:20;100883.05;;;-2.39;100.00
34921;BME280;21128;50.016;20.002;2022-12-18T09:48:05;100883.87;;;-2.33;100.00
34921;BME280;21128;50.016;20.002;2022-12-18T09:51:02;100886.42;;;-2.31;100.00
34921;BME280;21128;50.016;20.002;2022-12-18T09:54:20;100888.92;;;-2.22;100.00
34921;BME280;21128;50.016;20.002;2022-12-18T09:57:14;100894.11;;;-2.28;100.00
34921;BME280;21128;50.016;20.002;2022-12-18T10:00:15;100896.62;;;-2.19;100.00
34921;BME280;21128;50.016;20.002;2022-12-18T10:03:09;100893.92;;;-2.04;100.00
34921;BME280;21128;50.016;20.002;2022-12-18T10:12:19;100881.39;;;-1.50;100.00
34921;BME280;21128;50.016;20.002;2022-12-18T10:15:45;100882.88;;;-1.30;100.00
34921;BME280;21128;50.016;20.002;2022-12-18T10:27:58;100889.77;;;-1.31;100.00
34921;BME280;21128;50.016;20.002;2022-12-18T10:30:45;100891.69;;;-1.48;100.00
34921;BME280;21128;50.016;20.002;2022-12-18T10:33:33;100888.52;;;-1.75;100.00
34921;BME280;21128;50.016;20.002;2022-12-18T10:36:20;100885.32;;;-2.03;100.00
34921;BME280;21128;50.016;20.002;2022-12-18T10:39:25;100874.25;;;-2.12;100.00
34921;BME280;21128;50.016;20.002;2022-12-18T10:42:17;100876.01;;;-2.16;100.00
34921;BME280;21128;50.016;20.002;2022-12-18T10:47:53;100878.59;;;-2.19;100.00
34921;BME280;21128;50.016;20.002;2022-12-18T10:50:39;100877.72;;;-2.15;100.00
34921;BME280;21128;50.016;20.002;2022-12-18T10:53:33;100876.83;;;-2.12;100.00
34921;BME280;21128;50.016;20.002;2022-12-18T10:56:20;100867.28;;;-2.00;100.00
34921;BME280;21128;50.016;20.002;2022-12-18T10:59:09;100864.63;;;-1.93;100.00
34921;BME280;21128;50.016;20.002;2022-12-18T11:01:58;100868.05;;;-1.90;100.00
34921;BME280;21128;50.016;20.002;2022-12-18T11:04:52;100863.83;;;-1.99;100.00
34921;BME280;21128;50.016;20.002;2022-12-18T11:07:49;100860.47;;;-2.07;100.00
34921;BME280;21128;50.016;20.002;2022-12-18T11:10:37;100859.55;;;-2.00;100.00
34921;BME280;21128;50.016;20.002;2022-12-18T11:13:32;100859.41;;;-1.86;100.00
34921;BME280;21128;50.016;20.002;2022-12-18T11:16:26;100854.32;;;-1.93;100.00
34921;BME280;21128;50.016;20.002;2022-12-18T11:19:25;100846.72;;;-2.06;100.00
34921;BME280;21128;50.016;20.002;2022-12-18T11:22:27;100840.67;;;-2.00;100.00
34921;BME280;21128;50.016;20.002;2022-12-18T11:28:05;100837.98;;;-1.89;100.00
34921;BME280;21128;50.016;20.002;2022-12-18T11:34:10;100839.86;;;-2.07;100.00
34921;BME280;21128;50.016;20.002;2022-12-18T11:36:59;100832.22;;;-2.16;100.00
34921;BME280;21128;50.016;20.002;2022-12-18T11:39:53;100844.30;;;-2.22;100.00
34921;BME280;21128;50.016;20.002;2022-12-18T11:42:56;100828.88;;;-2.25;100.00
34921;BME280;21128;50.016;20.002;2022-12-18T11:45:50;100838.39;;;-2.37;100.00
34921;BME280;21128;50.016;20.002;2022-12-18T11:48:46;100849.59;;;-2.41;100.00
34921;BME280;21128;50.016;20.002;2022-12-18T11:51:49;100847.03;;;-2.44;100.00
34921;BME280;21128;50.016;20.002;2022-12-18T11:54:35;100856.48;;;-2.43;100.00
34921;BME280;21128;50.016;20.002;2022-12-18T12:00:20;100844.52;;;-2.53;100.00
34921;BME280;21128;50.016;20.002;2022-12-18T12:03:24;100858.33;;;-2.60;100.00
34921;BME280;21128;50.016;20.002;2022-12-18T12:06:28;100859.24;;;-2.69;100.00
34921;BME280;21128;50.016;20.002;2022-12-18T12:09:31;100861.81;;;-2.69;100.00
34921;BME280;21128;50.016;20.002;2022-12-18T12:22:40;100852.33;;;-2.64;100.00
34921;BME280;21128;50.016;20.002;2022-12-18T12:25:40;100859.18;;;-2.60;100.00
34921;BME280;21128;50.016;20.002;2022-12-18T12:28:47;100853.21;;;-2.66;100.00
34921;BME280;21128;50.016;20.002;2022-12-18T12:35:22;100866.08;;;-2.69;100.00
34921;BME280;21128;50.016;20.002;2022-12-18T12:38:13;100867.81;;;-2.68;100.00
34921;BME280;21128;50.016;20.002;2022-12-18T12:41:06;100883.27;;;-2.73;100.00
34921;BME280;21128;50.016;20.002;2022-12-18T12:44:25;100894.45;;;-2.75;100.00
34921;BME280;21128;50.016;20.002;2022-12-18T12:47:19;100897.00;;;-2.74;100.00
34921;BME280;21128;50.016;20.002;2022-12-18T12:50:13;100888.43;;;-2.74;100.00
34921;BME280;21128;50.016;20.002;2022-12-18T12:53:05;100902.98;;;-2.70;100.00
34921;BME280;21128;50.016;20.002;2022-12-18T12:55:58;100898.70;;;-2.68;100.00
34921;BME280;21128;50.016;20.002;2022-12-18T13:08:22;100912.38;;;-2.63;100.00
34921;BME280;21128;50.016;20.002;2022-12-18T13:11:43;100922.71;;;-2.71;100.00
34921;BME280;21128;50.016;20.002;2022-12-18T13:15:12;100918.44;;;-2.73;100.00
34921;BME280;21128;50.016;20.002;2022-12-18T13:21:20;100915.84;;;-2.67;100.00
34921;BME280;21128;50.016;20.002;2022-12-18T13:24:28;100928.70;;;-2.70;100.00
34921;BME280;21128;50.016;20.002;2022-12-18T13:36:28;100922.76;;;-2.80;100.00
34921;BME280;21128;50.016;20.002;2022-12-18T13:44:52;100929.72;;;-3.03;100.00
34921;BME280;21128;50.016;20.002;2022-12-18T13:47:44;100945.17;;;-3.06;100.00
34921;BME280;21128;50.016;20.002;2022-12-18T13:50:30;100939.19;;;-3.08;100.00
34921;BME280;21128;50.016;20.002;2022-12-18T13:53:23;100952.05;;;-3.13;100.00
34921;BME280;21128;50.016;20.002;2022-12-18T13:56:21;100954.66;;;-3.24;100.00
34921;BME280;21128;50.016;20.002;2022-12-18T13:59:13;100958.13;;;-3.42;100.00
34921;BME280;21128;50.016;20.002;2022-12-18T14:02:05;100957.30;;;-3.57;100.00
34921;BME280;21128;50.016;20.002;2022-12-18T14:04:54;100956.45;;;-3.69;100.00
34921;BME280;21128;50.016;20.002;2022-12-18T14:07:39;100959.02;;;-3.75;100.00
34921;BME280;21128;50.016;20.002;2022-12-18T14:10:32;100975.30;;;-3.83;100.00
34921;BME280;21128;50.016;20.002;2022-12-18T14:13:27;100971.02;;;-3.92;100.00
34921;BME280;21128;50.016;20.002;2022-12-18T14:16:15;100978.70;;;-4.06;100.00
34921;BME280;21128;50.016;20.002;2022-12-18T14:19:14;100980.41;;;-4.18;100.00
34921;BME280;21128;50.016;20.002;2022-12-18T14:22:17;100982.95;;;-4.34;100.00
34921;BME280;21128;50.016;20.002;2022-12-18T14:25:27;100983.76;;;-4.53;100.00
34921;BME280;21128;50.016;20.002;2022-12-18T14:28:14;100987.13;;;-4.66;100.00
34921;BME280;21128;50.016;20.002;2022-12-18T14:31:00;100983.64;;;-4.81;100.00
34921;BME280;21128;50.016;20.002;2022-12-18T14:33:53;100984.45;;;-4.92;100.00
34921;BME280;21128;50.016;20.002;2022-12-18T14:36:39;100983.56;;;-5.03;100.00
34921;BME280;21128;50.016;20.002;2022-12-18T14:39:25;100989.50;;;-5.12;100.00
34921;BME280;21128;50.016;20.002;2022-12-18T14:42:11;100986.00;;;-5.22;100.00
34921;BME280;21128;50.016;20.002;2022-12-18T14:45:35;100997.95;;;-5.28;100.00
34921;BME280;21128;50.016;20.002;2022-12-18T14:48:41;101002.98;;;-5.39;100.00
34921;BME280;21128;50.016;20.002;2022-12-18T14:51:30;101002.92;;;-5.48;100.00
34921;BME280;21128;50.016;20.002;2022-12-18T14:54:18;101006.28;;;-5.55;100.00
34921;BME280;21128;50.016;20.002;2022-12-18T14:57:29;101012.19;;;-5.64;100.00
34921;BME280;21128;50.016;20.002;2022-12-18T15:00:20;101008.71;;;-5.72;100.00
34921;BME280;21128;50.016;20.002;2022-12-18T15:03:08;101003.55;;;-5.80;100.00
34921;BME280;21128;50.016;20.002;2022-12-18T15:05:55;101000.92;;;-5.87;100.00
34921;BME280;21128;50.016;20.002;2022-12-18T15:08:42;100991.52;;;-5.93;100.00
34921;BME280;21128;50.016;20.002;2022-12-18T15:11:35;100993.16;;;-5.98;100.00
34921;BME280;21128;50.016;20.002;2022-12-18T15:14:41;101005.94;;;-6.03;100.00
34921;BME280;21128;50.016;20.002;2022-12-18T15:17:27;101004.17;;;-6.08;100.00
34921;BME280;21128;50.016;20.002;2022-12-18T15:20:13;101007.52;;;-6.14;100.00
34921;BME280;21128;50.016;20.002;2022-12-18T15:23:33;101010.91;;;-6.18;100.00
34921;BME280;21128;50.016;20.002;2022-12-18T15:26:21;101011.73;;;-6.22;100.00
34921;BME280;21128;50.016;20.002;2022-12-18T15:29:19;101007.41;;;-6.26;100.00
34921;BME280;21128;50.016;20.002;2022-12-18T15:32:18;101002.27;;;-6.29;100.00
34921;BME280;21128;50.016;20.002;2022-12-18T15:35:21;101010.80;;;-6.30;100.00
34921;BME280;21128;50.016;20.002;2022-12-18T15:38:07;101015.02;;;-6.32;100.00
34921;BME280;21128;50.016;20.002;2022-12-18T15:40:53;101023.53;;;-6.33;100.00
34921;BME280;21128;50.016;20.002;2022-12-18T15:43:40;101038.88;;;-6.35;100.00
34921;BME280;21128;50.016;20.002;2022-12-18T15:46:26;101038.02;;;-6.35;100.00
34921;BME280;21128;50.016;20.002;2022-12-18T15:49:12;101023.50;;;-6.38;100.00
34921;BME280;21128;50.016;20.002;2022-12-18T15:51:59;101032.02;;;-6.39;100.00
34921;BME280;21128;50.016;20.002;2022-12-18T15:54:45;101037.09;;;-6.40;100.00
34921;BME280;21128;50.016;20.002;2022-12-18T15:57:50;101039.55;;;-6.49;100.00
34921;BME280;21128;50.016;20.002;2022-12-18T16:00:41;101036.02;;;-6.61;100.00
34921;BME280;21128;50.016;20.002;2022-12-18T16:03:27;101045.27;;;-6.72;100.00
34921;BME280;21128;50.016;20.002;2022-12-18T16:06:13;101047.75;;;-6.76;100.00
34921;BME280;21128;50.016;20.002;2022-12-18T16:09:05;101042.53;;;-6.84;100.00